createdAt,value
2022-12-04T00:00:00.252Z,1.9
2022-12-04T00:10:00.296Z,2.0
2022-12-04T00:20:00.358Z,2.0
2022-12-04T00:30:00.283Z,2.0
2022-12-04T00:40:00.336Z,2.0
2022-12-04T00:50:00.278Z,2.0
2022-12-04T01:00:00.318Z,2.0
2022-12-04T01:10:00.311Z,2.0
2022-12-04T01:20:00.330Z,2.0
2022-12-04T01:30:00.309Z,2.0
2022-12-04T01:40:00.275Z,2.0
2022-12-04T01:50:00.287Z,2.0
2022-12-04T02:00:00.275Z,2.0
2022-12-04T02:10:00.280Z,2.0
2022-12-04T02:20:00.329Z,2.0
2022-12-04T02:30:00.259Z,2.0
2022-12-04T02:40:00.294Z,2.0
2022-12-04T02:50:00.311Z,2.0
2022-12-04T03:00:00.250Z,2.0
2022-12-04T03:10:00.267Z,2.0
2022-12-04T03:20:00.309Z,2.0
2022-12-04T03:30:00.238Z,2.0
2022-12-04T03:40:00.242Z,2.0
2022-12-04T03:50:00.247Z,2.0
2022-12-04T04:00:00.405Z,2.0
2022-12-04T04:10:00.254Z,2.1
2022-12-04T04:20:00.329Z,2.0
2022-12-04T04:30:00.244Z,2.1
2022-12-04T04:40:00.280Z,2.1
2022-12-04T04:50:00.244Z,2.0
2022-12-04T05:00:00.335Z,2.0
2022-12-04T05:10:00.262Z,2.1
2022-12-04T05:20:00.456Z,2.1
2022-12-04T05:30:00.268Z,2.1
2022-12-04T05:40:00.274Z,2.1
2022-12-04T05:50:00.283Z,2.1
2022-12-04T06:00:00.292Z,2.1
2022-12-04T06:10:00.249Z,2.1
2022-12-04T06:20:00.526Z,2.2
2022-12-04T06:30:00.256Z,2.1
2022-12-04T06:40:00.326Z,2.2
2022-12-04T06:50:00.275Z,2.2
2022-12-04T07:00:00.288Z,2.2
2022-12-04T07:10:00.270Z,2.2
2022-12-04T07:20:00.320Z,2.2
2022-12-04T07:30:00.259Z,2.2
2022-12-04T07:40:00.322Z,2.2
2022-12-04T07:50:00.225Z,2.3
2022-12-04T08:00:00.268Z,2.3
2022-12-04T08:10:00.243Z,2.3
2022-12-04T08:20:00.340Z,2.4
2022-12-04T08:30:00.282Z,2.4
2022-12-04T08:40:00.268Z,2.4
2022-12-04T08:50:00.266Z,2.5
2022-12-04T09:00:00.258Z,2.5
2022-12-04T09:10:00.545Z,2.6
2022-12-04T09:20:01.301Z,2.7
2022-12-04T09:30:00.253Z,2.7
2022-12-04T09:40:00.281Z,2.7
2022-12-04T09:50:00.290Z,2.8
2022-12-04T10:00:00.291Z,2.8
2022-12-04T10:10:00.274Z,2.9
2022-12-04T10:20:00.321Z,3.0
2022-12-04T10:30:00.278Z,3.0
2022-12-04T10:40:00.251Z,3.0
2022-12-04T10:50:00.286Z,3.0
2022-12-04T11:00:00.469Z,3.1
2022-12-04T11:10:00.263Z,3.1
2022-12-04T11:20:00.292Z,3.1
2022-12-04T11:30:00.358Z,3.1
2022-12-04T11:40:00.299Z,3.2
2022-12-04T11:50:00.537Z,3.2
2022-12-04T12:00:00.269Z,3.2
2022-12-04T12:10:00.276Z,3.2
2022-12-04T12:20:00.283Z,3.3
2022-12-04T12:30:00.294Z,3.3
2022-12-04T12:40:00.390Z,3.3
2022-12-04T12:50:00.269Z,3.3
2022-12-04T13:00:00.307Z,3.4
2022-12-04T13:10:00.287Z,3.4
2022-12-04T13:20:02.279Z,3.4
2022-12-04T13:30:00.295Z,3.4
2022-12-04T13:40:00.307Z,3.4
2022-12-04T13:50:03.704Z,3.4
2022-12-04T14:00:00.265Z,3.4
2022-12-04T14:10:00.261Z,3.4
2022-12-04T14:20:04.386Z,3.4
2022-12-04T14:30:00.303Z,3.4
2022-12-04T14:40:00.295Z,3.3
2022-12-04T14:50:00.285Z,3.3
2022-12-04T15:00:00.293Z,3.3
2022-12-04T15:10:00.279Z,3.3
2022-12-04T15:20:00.249Z,3.2
2022-12-04T15:30:00.251Z,3.2
2022-12-04T15:40:00.346Z,3.2
2022-12-04T15:50:00.275Z,3.2
2022-12-04T16:00:00.280Z,3.1
2022-12-04T16:10:03.518Z,3.1
2022-12-04T16:20:00.357Z,3.1
2022-12-04T16:30:00.360Z,3.1
2022-12-04T16:40:00.298Z,3.0
2022-12-04T16:50:00.272Z,2.9
2022-12-04T17:00:00.367Z,2.9
2022-12-04T17:10:00.341Z,2.8
2022-12-04T17:20:00.241Z,2.8
2022-12-04T17:30:00.256Z,2.7
2022-12-04T17:40:00.319Z,2.6
2022-12-04T17:50:00.287Z,2.6
2022-12-04T18:00:00.296Z,2.5
2022-12-04T18:10:00.590Z,2.5
2022-12-04T18:20:04.442Z,2.4
2022-12-04T18:30:00.471Z,2.4
2022-12-04T18:40:04.845Z,2.3
2022-12-04T18:50:00.617Z,2.3
2022-12-04T19:00:00.470Z,2.3
2022-12-04T19:10:10.256Z,2.2
2022-12-04T19:20:00.259Z,2.2
2022-12-04T19:30:00.288Z,2.2
2022-12-04T19:40:00.336Z,2.2
2022-12-04T19:50:00.401Z,2.2
2022-12-04T20:00:00.464Z,2.2
2022-12-04T20:10:00.603Z,2.2
2022-12-04T20:20:00.287Z,2.2
2022-12-04T20:30:00.325Z,2.2
2022-12-04T20:40:00.340Z,2.2
2022-12-04T20:50:00.300Z,2.2
2022-12-04T21:00:00.277Z,2.2
2022-12-04T21:10:00.384Z,2.2
2022-12-04T21:20:04.236Z,2.2
2022-12-04T21:30:00.291Z,2.2
2022-12-04T21:40:00.581Z,2.2
2022-12-04T21:50:00.553Z,2.2
2022-12-04T22:00:00.492Z,2.2
2022-12-04T22:10:03.055Z,2.2
2022-12-04T22:20:00.318Z,2.2
2022-12-04T22:30:00.290Z,2.2
2022-12-04T22:40:00.404Z,2.2
2022-12-04T22:50:00.399Z,2.2
2022-12-04T23:00:00.306Z,2.2
2022-12-04T23:10:00.469Z,2.2
2022-12-04T23:20:00.283Z,2.2
2022-12-04T23:30:00.281Z,2.2
2022-12-04T23:40:00.660Z,2.2
2022-12-04T23:50:00.459Z,2.2
